FBZ5005 SACO-SABE
Flight info
| Callsign | FBZ5005 |
|---|---|
| Flight time | 1h 8m |
| Altitude | 37000 |
| Route | UTRAX UW24 SNT SNT9R |
| Aircraft | B738/M-SDFGHIRWZ/S |
Departure
| Time | 2026-05-03 21:58 |
|---|---|
| Airport | Ingeniero Aeronáutico Ambrosio L.V. Taravella International Airport (SACO) |
Arrival
| Time | 2026-05-03 23:06 |
|---|---|
| Airport | Aeroparque Jorge Newbery (SABE) |
| Time | Latitude | Longitude | Altitude | Speed | Heading |
|---|---|---|---|---|---|
| 2026-05-03 21:43 | -31.31588 | -64.21182 | 1566 ft | 0 kts | 250° |
| 2026-05-03 21:48 | -31.31587 | -64.21182 | 1566 ft | 0 kts | 250° |
| 2026-05-03 21:48 | -31.31588 | -64.21182 | 1566 ft | 0 kts | 250° |
| 2026-05-03 21:49 | -31.31587 | -64.21182 | 1566 ft | 0 kts | 250° |
| 2026-05-03 21:49 | -31.31583 | -64.21167 | 1566 ft | 2 kts | 249° |
| 2026-05-03 21:49 | -31.31578 | -64.21151 | 1565 ft | 2 kts | 250° |
| 2026-05-03 21:49 | -31.31572 | -64.21134 | 1565 ft | 2 kts | 250° |
| 2026-05-03 21:50 | -31.31567 | -64.21117 | 1564 ft | 2 kts | 250° |
| 2026-05-03 21:50 | -31.31563 | -64.21103 | 1564 ft | 0 kts | 250° |
| 2026-05-03 21:50 | -31.31558 | -64.21091 | 1564 ft | 2 kts | 232° |
| 2026-05-03 21:50 | -31.31547 | -64.21079 | 1564 ft | 2 kts | 210° |
| 2026-05-03 21:51 | -31.31540 | -64.21075 | 1564 ft | 1 kts | 198° |
| 2026-05-03 21:51 | -31.31535 | -64.21073 | 1564 ft | 0 kts | 198° |
| 2026-05-03 21:52 | -31.31546 | -64.21078 | 1564 ft | 4 kts | 199° |
| 2026-05-03 21:53 | -31.31592 | -64.21094 | 1563 ft | 8 kts | 193° |
| 2026-05-03 21:53 | -31.31665 | -64.21098 | 1562 ft | 12 kts | 178° |
| 2026-05-03 21:53 | -31.31756 | -64.21075 | 1559 ft | 15 kts | 138° |
| 2026-05-03 21:53 | -31.31859 | -64.21029 | 1554 ft | 18 kts | 179° |
| 2026-05-03 21:54 | -31.31995 | -64.21027 | 1549 ft | 19 kts | 179° |
| 2026-05-03 21:54 | -31.32130 | -64.21025 | 1546 ft | 19 kts | 179° |
| 2026-05-03 21:54 | -31.32266 | -64.21023 | 1541 ft | 19 kts | 179° |
| 2026-05-03 21:54 | -31.32359 | -64.21021 | 1538 ft | 6 kts | 179° |
| 2026-05-03 21:55 | -31.32382 | -64.21021 | 1538 ft | 0 kts | 173° |
| 2026-05-03 21:55 | -31.32389 | -64.21019 | 1537 ft | 3 kts | 168° |
| 2026-05-03 21:56 | -31.32421 | -64.20998 | 1536 ft | 7 kts | 137° |
| 2026-05-03 21:56 | -31.32442 | -64.20924 | 1534 ft | 12 kts | 84° |
| 2026-05-03 21:56 | -31.32391 | -64.20835 | 1534 ft | 13 kts | 44° |
| 2026-05-03 21:56 | -31.32337 | -64.20774 | 1535 ft | 8 kts | 44° |
| 2026-05-03 21:57 | -31.32308 | -64.20740 | 1536 ft | 3 kts | 44° |
| 2026-05-03 21:57 | -31.32303 | -64.20734 | 1536 ft | 0 kts | 44° |
| 2026-05-03 21:57 | -31.32302 | -64.20734 | 1536 ft | 1 kts | 44° |
| 2026-05-03 21:58 | -31.32208 | -64.20628 | 1537 ft | 54 kts | 44° |
| 2026-05-03 21:58 | -31.31736 | -64.20094 | 1539 ft | 130 kts | 44° |
| 2026-05-03 21:58 | -31.30959 | -64.19205 | 1788 ft | 169 kts | 44° |
| 2026-05-03 21:58 | -31.30145 | -64.18253 | 2614 ft | 171 kts | 44° |
| 2026-05-03 21:59 | -31.29307 | -64.17245 | 3361 ft | 179 kts | 45° |
| 2026-05-03 21:59 | -31.28383 | -64.16104 | 3760 ft | 210 kts | 45° |
| 2026-05-03 21:59 | -31.27345 | -64.14822 | 4441 ft | 231 kts | 45° |
| 2026-05-03 21:59 | -31.26187 | -64.13382 | 4971 ft | 257 kts | 45° |
| 2026-05-03 22:00 | -31.24943 | -64.11832 | 4991 ft | 259 kts | 45° |
| 2026-05-03 22:00 | -31.23712 | -64.10297 | 4993 ft | 259 kts | 45° |
| 2026-05-03 22:00 | -31.22482 | -64.08765 | 4993 ft | 258 kts | 45° |
| 2026-05-03 22:00 | -31.21251 | -64.07233 | 4993 ft | 258 kts | 45° |
| 2026-05-03 22:01 | -31.20010 | -64.05690 | 4993 ft | 259 kts | 45° |
| 2026-05-03 22:01 | -31.18778 | -64.04160 | 4993 ft | 259 kts | 45° |
| 2026-05-03 22:01 | -31.17551 | -64.02637 | 4993 ft | 258 kts | 45° |
| 2026-05-03 22:01 | -31.16319 | -64.01109 | 4993 ft | 258 kts | 45° |
| 2026-05-03 22:02 | -31.15070 | -63.99562 | 4993 ft | 259 kts | 45° |
| 2026-05-03 22:02 | -31.13844 | -63.98043 | 4993 ft | 259 kts | 45° |
| 2026-05-03 22:02 | -31.12616 | -63.96524 | 4993 ft | 259 kts | 45° |
| 2026-05-03 22:02 | -31.11375 | -63.94991 | 4993 ft | 259 kts | 45° |
| 2026-05-03 22:03 | -31.10142 | -63.93469 | 4993 ft | 259 kts | 45° |
| 2026-05-03 22:03 | -31.08906 | -63.91943 | 4993 ft | 259 kts | 45° |
| 2026-05-03 22:03 | -31.07659 | -63.90405 | 4993 ft | 259 kts | 45° |
| 2026-05-03 22:03 | -31.06397 | -63.88854 | 5157 ft | 280 kts | 45° |
| 2026-05-03 22:04 | -31.05085 | -63.87229 | 6504 ft | 274 kts | 44° |
| 2026-05-03 22:04 | -31.03812 | -63.85610 | 7590 ft | 277 kts | 45° |
| 2026-05-03 22:04 | -31.02519 | -63.83941 | 8637 ft | 280 kts | 44° |
| 2026-05-03 22:04 | -31.01219 | -63.82248 | 9607 ft | 284 kts | 44° |
| 2026-05-03 22:05 | -30.99916 | -63.80541 | 10397 ft | 293 kts | 44° |
| 2026-05-03 22:05 | -30.98486 | -63.78670 | 10694 ft | 320 kts | 45° |
| 2026-05-03 22:05 | -30.96984 | -63.76713 | 11384 ft | 330 kts | 44° |
| 2026-05-03 22:05 | -30.95429 | -63.74685 | 11893 ft | 341 kts | 44° |
| 2026-05-03 22:06 | -30.93830 | -63.72597 | 12024 ft | 352 kts | 44° |
| 2026-05-03 22:06 | -30.92221 | -63.70493 | 13196 ft | 345 kts | 44° |
| 2026-05-03 22:06 | -30.90630 | -63.68388 | 13845 ft | 349 kts | 45° |
| 2026-05-03 22:06 | -30.89231 | -63.66103 | 13921 ft | 349 kts | 59° |
| 2026-05-03 22:07 | -30.88530 | -63.63374 | 13938 ft | 357 kts | 81° |
| 2026-05-03 22:07 | -30.88718 | -63.60464 | 13944 ft | 367 kts | 99° |
| 2026-05-03 22:07 | -30.89665 | -63.57700 | 13935 ft | 375 kts | 119° |
| 2026-05-03 22:07 | -30.91460 | -63.55444 | 13940 ft | 382 kts | 145° |
| 2026-05-03 22:08 | -30.93787 | -63.54212 | 13945 ft | 382 kts | 167° |
| 2026-05-03 22:08 | -30.96395 | -63.53667 | 13930 ft | 380 kts | 173° |
| 2026-05-03 22:08 | -30.99000 | -63.53194 | 13937 ft | 376 kts | 173° |
| 2026-05-03 22:08 | -31.01559 | -63.52690 | 13939 ft | 373 kts | 173° |
| 2026-05-03 22:09 | -31.04107 | -63.52199 | 13939 ft | 371 kts | 173° |
| 2026-05-03 22:09 | -31.06664 | -63.51720 | 13939 ft | 370 kts | 174° |
| 2026-05-03 22:09 | -31.09185 | -63.51251 | 13939 ft | 371 kts | 174° |
| 2026-05-03 22:10 | -31.14304 | -63.50301 | 13938 ft | 371 kts | 174° |
| 2026-05-03 22:10 | -31.16843 | -63.49832 | 13939 ft | 371 kts | 174° |
| 2026-05-03 22:10 | -31.19386 | -63.49361 | 13939 ft | 371 kts | 174° |
| 2026-05-03 22:10 | -31.21944 | -63.48888 | 13939 ft | 371 kts | 174° |
| 2026-05-03 22:11 | -31.24476 | -63.48420 | 13939 ft | 371 kts | 174° |
| 2026-05-03 22:11 | -31.27003 | -63.47952 | 13939 ft | 371 kts | 174° |
| 2026-05-03 22:11 | -31.29557 | -63.47479 | 13939 ft | 371 kts | 174° |
| 2026-05-03 22:11 | -31.32124 | -63.47003 | 13939 ft | 371 kts | 174° |
| 2026-05-03 22:12 | -31.34683 | -63.46529 | 13939 ft | 371 kts | 174° |
| 2026-05-03 22:12 | -31.37228 | -63.46057 | 13939 ft | 371 kts | 174° |
| 2026-05-03 22:12 | -31.39786 | -63.45582 | 13939 ft | 371 kts | 174° |
| 2026-05-03 22:12 | -31.42334 | -63.45109 | 13939 ft | 371 kts | 174° |
| 2026-05-03 22:13 | -31.44864 | -63.44640 | 13945 ft | 374 kts | 174° |
| 2026-05-03 22:13 | -31.47497 | -63.44152 | 14458 ft | 385 kts | 174° |
| 2026-05-03 22:13 | -31.50113 | -63.43664 | 15398 ft | 383 kts | 174° |
| 2026-05-03 22:13 | -31.52755 | -63.43173 | 16114 ft | 386 kts | 174° |
| 2026-05-03 22:14 | -31.55392 | -63.42682 | 16859 ft | 389 kts | 174° |
| 2026-05-03 22:14 | -31.58057 | -63.42186 | 17509 ft | 393 kts | 174° |
| 2026-05-03 22:14 | -31.60739 | -63.41414 | 18110 ft | 402 kts | 160° |
| 2026-05-03 22:14 | -31.63109 | -63.39661 | 18736 ft | 409 kts | 139° |
| 2026-05-03 22:15 | -31.65118 | -63.37261 | 19356 ft | 413 kts | 135° |
| 2026-05-03 22:15 | -31.67096 | -63.34868 | 19852 ft | 418 kts | 136° |
| 2026-05-03 22:15 | -31.69126 | -63.32517 | 20391 ft | 422 kts | 136° |
| 2026-05-03 22:15 | -31.71224 | -63.30101 | 20910 ft | 426 kts | 136° |
| 2026-05-03 22:16 | -31.73338 | -63.27654 | 21418 ft | 429 kts | 136° |
| 2026-05-03 22:16 | -31.75479 | -63.25175 | 21911 ft | 433 kts | 137° |
| 2026-05-03 22:16 | -31.77657 | -63.22656 | 22395 ft | 437 kts | 137° |
| 2026-05-03 22:16 | -31.79822 | -63.20153 | 22860 ft | 440 kts | 137° |
| 2026-05-03 22:17 | -31.82020 | -63.17610 | 23313 ft | 443 kts | 137° |
| 2026-05-03 22:17 | -31.84221 | -63.15064 | 23751 ft | 446 kts | 137° |
| 2026-05-03 22:17 | -31.86425 | -63.12513 | 24175 ft | 450 kts | 137° |
| 2026-05-03 22:17 | -31.88693 | -63.09886 | 24565 ft | 454 kts | 137° |
| 2026-05-03 22:18 | -31.90938 | -63.07285 | 24922 ft | 458 kts | 137° |
| 2026-05-03 22:18 | -31.93220 | -63.04639 | 25278 ft | 462 kts | 137° |
| 2026-05-03 22:18 | -31.95493 | -63.02001 | 25613 ft | 466 kts | 137° |
| 2026-05-03 22:18 | -31.97813 | -62.99307 | 25943 ft | 470 kts | 137° |
| 2026-05-03 22:19 | -32.00119 | -62.96627 | 26260 ft | 474 kts | 137° |
| 2026-05-03 22:19 | -32.02497 | -62.93861 | 26590 ft | 478 kts | 137° |
| 2026-05-03 22:19 | -32.04843 | -62.91131 | 26891 ft | 482 kts | 137° |
| 2026-05-03 22:19 | -32.07236 | -62.88345 | 27188 ft | 486 kts | 137° |
| 2026-05-03 22:20 | -32.09660 | -62.85519 | 27516 ft | 489 kts | 137° |
| 2026-05-03 22:20 | -32.11755 | -62.83075 | 27794 ft | 491 kts | 137° |
| 2026-05-03 22:20 | -32.14197 | -62.80224 | 28097 ft | 494 kts | 137° |
| 2026-05-03 22:20 | -32.16653 | -62.77355 | 28399 ft | 496 kts | 137° |
| 2026-05-03 22:21 | -32.19099 | -62.74495 | 28686 ft | 499 kts | 137° |
| 2026-05-03 22:21 | -32.21553 | -62.71624 | 28965 ft | 501 kts | 137° |
| 2026-05-03 22:21 | -32.24024 | -62.68731 | 29240 ft | 504 kts | 137° |
| 2026-05-03 22:21 | -32.26535 | -62.65788 | 29510 ft | 506 kts | 137° |
| 2026-05-03 22:22 | -32.29058 | -62.62829 | 29774 ft | 508 kts | 137° |
| 2026-05-03 22:22 | -32.31541 | -62.59915 | 30036 ft | 510 kts | 138° |
| 2026-05-03 22:22 | -32.34088 | -62.56922 | 30290 ft | 513 kts | 138° |
| 2026-05-03 22:22 | -32.36620 | -62.53945 | 30542 ft | 514 kts | 138° |
| 2026-05-03 22:23 | -32.39176 | -62.50936 | 30831 ft | 515 kts | 138° |
| 2026-05-03 22:23 | -32.41711 | -62.47950 | 31083 ft | 517 kts | 138° |
| 2026-05-03 22:23 | -32.44276 | -62.44927 | 31339 ft | 518 kts | 138° |
| 2026-05-03 22:23 | -32.46824 | -62.41920 | 31747 ft | 516 kts | 139° |
| 2026-05-03 22:24 | -32.49255 | -62.39048 | 32083 ft | 515 kts | 139° |
| 2026-05-03 22:24 | -32.51778 | -62.36067 | 32402 ft | 514 kts | 139° |
| 2026-05-03 22:24 | -32.53762 | -62.33721 | 32649 ft | 514 kts | 138° |
| 2026-05-03 22:24 | -32.56450 | -62.30539 | 32943 ft | 514 kts | 139° |
| 2026-05-03 22:25 | -32.58962 | -62.27565 | 33225 ft | 513 kts | 139° |
| 2026-05-03 22:25 | -32.61502 | -62.24553 | 33500 ft | 513 kts | 139° |
| 2026-05-03 22:25 | -32.64029 | -62.21554 | 33772 ft | 512 kts | 139° |
| 2026-05-03 22:25 | -32.66535 | -62.18475 | 34037 ft | 514 kts | 135° |
| 2026-05-03 22:26 | -32.68829 | -62.15167 | 34302 ft | 516 kts | 130° |
| 2026-05-03 22:26 | -32.70927 | -62.11735 | 34575 ft | 516 kts | 128° |
| 2026-05-03 22:26 | -32.73000 | -62.08248 | 34828 ft | 516 kts | 128° |
| 2026-05-03 22:26 | -32.75099 | -62.04747 | 35086 ft | 515 kts | 128° |
| 2026-05-03 22:27 | -32.77153 | -62.01319 | 35334 ft | 515 kts | 128° |
| 2026-05-03 22:27 | -32.79230 | -61.97821 | 35583 ft | 514 kts | 128° |
| 2026-05-03 22:27 | -32.81257 | -61.94379 | 35828 ft | 514 kts | 128° |
| 2026-05-03 22:27 | -32.83299 | -61.90892 | 36470 ft | 502 kts | 128° |
| 2026-05-03 22:28 | -32.84956 | -61.88055 | 36856 ft | 498 kts | 128° |
| 2026-05-03 22:28 | -32.86816 | -61.84873 | 37005 ft | 499 kts | 128° |
| 2026-05-03 22:28 | -32.88800 | -61.81472 | 37044 ft | 501 kts | 128° |
| 2026-05-03 22:29 | -32.92771 | -61.74703 | 37044 ft | 496 kts | 131° |
| 2026-05-03 22:29 | -32.95132 | -61.71757 | 37047 ft | 485 kts | 147° |
| 2026-05-03 22:29 | -32.97952 | -61.69685 | 37049 ft | 469 kts | 165° |
| 2026-05-03 22:29 | -33.00981 | -61.68641 | 37052 ft | 452 kts | 180° |
| 2026-05-03 22:30 | -33.04075 | -61.68274 | 37047 ft | 445 kts | 184° |
| 2026-05-03 22:30 | -33.10195 | -61.67793 | 37046 ft | 440 kts | 182° |
| 2026-05-03 22:31 | -33.16277 | -61.67401 | 37047 ft | 436 kts | 183° |
| 2026-05-03 22:31 | -33.22413 | -61.67052 | 37047 ft | 438 kts | 183° |
| 2026-05-03 22:32 | -33.28464 | -61.66605 | 37042 ft | 443 kts | 176° |
| 2026-05-03 22:32 | -33.31476 | -61.65530 | 37047 ft | 453 kts | 157° |
| 2026-05-03 22:32 | -33.34060 | -61.63350 | 37048 ft | 463 kts | 136° |
| 2026-05-03 22:32 | -33.35919 | -61.60194 | 37048 ft | 468 kts | 115° |
| 2026-05-03 22:33 | -33.36979 | -61.56533 | 37052 ft | 471 kts | 105° |
| 2026-05-03 22:33 | -33.37597 | -61.52639 | 37045 ft | 470 kts | 93° |
| 2026-05-03 22:33 | -33.37622 | -61.48774 | 37049 ft | 468 kts | 85° |
| 2026-05-03 22:34 | -33.37270 | -61.40937 | 37046 ft | 468 kts | 86° |
| 2026-05-03 22:34 | -33.37073 | -61.33215 | 37047 ft | 467 kts | 86° |
| 2026-05-03 22:35 | -33.36850 | -61.25386 | 37047 ft | 467 kts | 86° |
| 2026-05-03 22:35 | -33.37266 | -61.17696 | 37047 ft | 469 kts | 109° |
| 2026-05-03 22:35 | -33.38684 | -61.14202 | 37057 ft | 470 kts | 123° |
| 2026-05-03 22:36 | -33.40487 | -61.10867 | 37046 ft | 474 kts | 124° |
| 2026-05-03 22:36 | -33.43963 | -61.04082 | 37046 ft | 481 kts | 122° |
| 2026-05-03 22:37 | -33.47400 | -60.97171 | 37047 ft | 485 kts | 123° |
| 2026-05-03 22:37 | -33.50883 | -60.90209 | 37047 ft | 487 kts | 123° |
| 2026-05-03 22:38 | -33.54327 | -60.83293 | 37047 ft | 486 kts | 123° |
| 2026-05-03 22:38 | -33.57792 | -60.76320 | 37047 ft | 485 kts | 123° |
| 2026-05-03 22:39 | -33.61233 | -60.69384 | 37047 ft | 486 kts | 123° |
| 2026-05-03 22:39 | -33.64510 | -60.62764 | 37047 ft | 486 kts | 123° |
| 2026-05-03 22:40 | -33.67965 | -60.55774 | 37047 ft | 486 kts | 123° |
| 2026-05-03 22:40 | -33.71395 | -60.48817 | 37047 ft | 486 kts | 123° |
| 2026-05-03 22:41 | -33.74859 | -60.41779 | 37047 ft | 486 kts | 123° |
| 2026-05-03 22:41 | -33.77980 | -60.35428 | 37047 ft | 486 kts | 123° |
| 2026-05-03 22:42 | -33.80058 | -60.31192 | 37047 ft | 486 kts | 122° |
| 2026-05-03 22:42 | -33.83546 | -60.24075 | 36381 ft | 496 kts | 122° |
| 2026-05-03 22:42 | -33.85304 | -60.20480 | 35656 ft | 496 kts | 122° |
| 2026-05-03 22:43 | -33.87066 | -60.16873 | 34876 ft | 498 kts | 122° |
| 2026-05-03 22:43 | -33.88820 | -60.13278 | 34133 ft | 498 kts | 122° |
| 2026-05-03 22:43 | -33.90574 | -60.09680 | 33561 ft | 493 kts | 122° |
| 2026-05-03 22:43 | -33.92305 | -60.06124 | 32968 ft | 490 kts | 122° |
| 2026-05-03 22:44 | -33.94027 | -60.02589 | 32375 ft | 486 kts | 121° |
| 2026-05-03 22:44 | -33.95731 | -59.99085 | 31790 ft | 483 kts | 121° |
| 2026-05-03 22:44 | -33.97436 | -59.95572 | 31202 ft | 480 kts | 121° |
| 2026-05-03 22:44 | -33.99108 | -59.92126 | 30622 ft | 482 kts | 121° |
| 2026-05-03 22:45 | -34.00816 | -59.88601 | 30024 ft | 485 kts | 120° |
| 2026-05-03 22:45 | -34.02503 | -59.85117 | 29429 ft | 485 kts | 120° |
| 2026-05-03 22:45 | -34.04206 | -59.81597 | 28826 ft | 485 kts | 120° |
| 2026-05-03 22:45 | -34.05893 | -59.78107 | 28226 ft | 483 kts | 120° |
| 2026-05-03 22:46 | -34.07594 | -59.74582 | 27616 ft | 482 kts | 120° |
| 2026-05-03 22:46 | -34.09284 | -59.71078 | 27007 ft | 480 kts | 120° |
| 2026-05-03 22:46 | -34.10949 | -59.67623 | 26405 ft | 479 kts | 120° |
| 2026-05-03 22:46 | -34.12632 | -59.64128 | 25795 ft | 480 kts | 119° |
| 2026-05-03 22:47 | -34.14301 | -59.60656 | 25185 ft | 480 kts | 119° |
| 2026-05-03 22:47 | -34.15974 | -59.57175 | 24572 ft | 478 kts | 119° |
| 2026-05-03 22:47 | -34.17635 | -59.53715 | 23960 ft | 472 kts | 119° |
| 2026-05-03 22:47 | -34.19262 | -59.50324 | 23357 ft | 464 kts | 119° |
| 2026-05-03 22:48 | -34.20875 | -59.46959 | 22762 ft | 455 kts | 119° |
| 2026-05-03 22:48 | -34.22441 | -59.43694 | 22182 ft | 447 kts | 119° |
| 2026-05-03 22:48 | -34.24063 | -59.40509 | 21605 ft | 440 kts | 122° |
| 2026-05-03 22:48 | -34.25721 | -59.37423 | 21037 ft | 432 kts | 122° |
| 2026-05-03 22:49 | -34.27309 | -59.34450 | 20488 ft | 425 kts | 121° |
| 2026-05-03 22:49 | -34.28918 | -59.31405 | 19927 ft | 417 kts | 121° |
| 2026-05-03 22:49 | -34.30459 | -59.28481 | 19384 ft | 410 kts | 121° |
| 2026-05-03 22:49 | -34.31984 | -59.25589 | 18849 ft | 403 kts | 121° |
| 2026-05-03 22:50 | -34.33490 | -59.22726 | 18317 ft | 397 kts | 121° |
| 2026-05-03 22:50 | -34.34966 | -59.19918 | 17795 ft | 390 kts | 121° |
| 2026-05-03 22:50 | -34.36406 | -59.17176 | 17283 ft | 384 kts | 121° |
| 2026-05-03 22:50 | -34.37837 | -59.14445 | 16773 ft | 378 kts | 121° |
| 2026-05-03 22:51 | -34.39236 | -59.11773 | 16273 ft | 372 kts | 121° |
| 2026-05-03 22:51 | -34.40608 | -59.09152 | 15780 ft | 367 kts | 121° |
| 2026-05-03 22:51 | -34.41976 | -59.06534 | 15288 ft | 361 kts | 121° |
| 2026-05-03 22:51 | -34.43317 | -59.03967 | 14803 ft | 356 kts | 121° |
| 2026-05-03 22:52 | -34.44640 | -59.01431 | 14323 ft | 351 kts | 121° |
| 2026-05-03 22:52 | -34.45935 | -58.98948 | 13853 ft | 346 kts | 121° |
| 2026-05-03 22:52 | -34.47220 | -58.96483 | 13385 ft | 341 kts | 122° |
| 2026-05-03 22:52 | -34.48494 | -58.94036 | 12919 ft | 337 kts | 122° |
| 2026-05-03 22:53 | -34.49758 | -58.91608 | 12455 ft | 332 kts | 122° |
| 2026-05-03 22:53 | -34.50984 | -58.89251 | 12005 ft | 328 kts | 122° |
| 2026-05-03 22:53 | -34.52193 | -58.86925 | 11557 ft | 324 kts | 122° |
| 2026-05-03 22:53 | -34.53390 | -58.84621 | 11115 ft | 320 kts | 122° |
| 2026-05-03 22:54 | -34.54586 | -58.82317 | 10670 ft | 316 kts | 122° |
| 2026-05-03 22:54 | -34.55743 | -58.80086 | 10338 ft | 308 kts | 122° |
| 2026-05-03 22:54 | -34.56654 | -58.77782 | 10157 ft | 297 kts | 109° |
| 2026-05-03 22:54 | -34.57282 | -58.75423 | 9842 ft | 291 kts | 108° |
| 2026-05-03 22:55 | -34.57923 | -58.73093 | 9480 ft | 288 kts | 109° |
| 2026-05-03 22:55 | -34.58563 | -58.70805 | 9127 ft | 284 kts | 109° |
| 2026-05-03 22:55 | -34.59202 | -58.68492 | 8727 ft | 283 kts | 109° |
| 2026-05-03 22:55 | -34.59825 | -58.66238 | 8367 ft | 280 kts | 109° |
| 2026-05-03 22:56 | -34.60445 | -58.63994 | 8020 ft | 277 kts | 108° |
| 2026-05-03 22:56 | -34.61053 | -58.61787 | 7669 ft | 274 kts | 108° |
| 2026-05-03 22:56 | -34.61656 | -58.59553 | 7279 ft | 273 kts | 108° |
| 2026-05-03 22:56 | -34.62239 | -58.57364 | 6935 ft | 271 kts | 108° |
| 2026-05-03 22:57 | -34.62822 | -58.55179 | 6600 ft | 268 kts | 108° |
| 2026-05-03 22:57 | -34.63388 | -58.53054 | 6276 ft | 265 kts | 108° |
| 2026-05-03 22:57 | -34.63950 | -58.50944 | 5955 ft | 262 kts | 108° |
| 2026-05-03 22:57 | -34.64514 | -58.48828 | 5628 ft | 260 kts | 108° |
| 2026-05-03 22:58 | -34.65063 | -58.46764 | 5310 ft | 258 kts | 107° |
| 2026-05-03 22:58 | -34.65613 | -58.44695 | 4991 ft | 256 kts | 107° |
| 2026-05-03 22:58 | -34.66156 | -58.42651 | 4676 ft | 253 kts | 107° |
| 2026-05-03 22:58 | -34.66694 | -58.40624 | 4371 ft | 246 kts | 107° |
| 2026-05-03 22:59 | -34.67201 | -58.38713 | 4224 ft | 232 kts | 107° |
| 2026-05-03 22:59 | -34.67685 | -58.36887 | 4163 ft | 217 kts | 107° |
| 2026-05-03 22:59 | -34.68142 | -58.35160 | 3921 ft | 212 kts | 107° |
| 2026-05-03 22:59 | -34.68581 | -58.33501 | 3621 ft | 210 kts | 106° |
| 2026-05-03 23:00 | -34.69020 | -58.31843 | 3468 ft | 199 kts | 106° |
| 2026-05-03 23:00 | -34.69423 | -58.30321 | 3438 ft | 178 kts | 106° |
| 2026-05-03 23:00 | -34.69795 | -58.28912 | 3393 ft | 173 kts | 106° |
| 2026-05-03 23:00 | -34.70163 | -58.27518 | 3345 ft | 174 kts | 106° |
| 2026-05-03 23:01 | -34.70521 | -58.26110 | 3287 ft | 173 kts | 99° |
| 2026-05-03 23:01 | -34.70383 | -58.24721 | 3187 ft | 167 kts | 52° |
| 2026-05-03 23:01 | -34.69411 | -58.23989 | 3139 ft | 169 kts | 8° |
| 2026-05-03 23:01 | -34.68229 | -58.23916 | 3066 ft | 169 kts | 1° |
| 2026-05-03 23:02 | -34.67062 | -58.23843 | 3014 ft | 169 kts | 1° |
| 2026-05-03 23:02 | -34.65906 | -58.24020 | 2929 ft | 169 kts | 332° |
| 2026-05-03 23:02 | -34.65100 | -58.25055 | 2623 ft | 172 kts | 297° |
| 2026-05-03 23:02 | -34.64541 | -58.26319 | 2242 ft | 169 kts | 305° |
| 2026-05-03 23:03 | -34.63890 | -58.27456 | 1976 ft | 161 kts | 306° |
| 2026-05-03 23:03 | -34.63242 | -58.28595 | 2011 ft | 160 kts | 306° |
| 2026-05-03 23:03 | -34.62628 | -58.29686 | 1990 ft | 156 kts | 306° |
| 2026-05-03 23:03 | -34.62019 | -58.30769 | 1905 ft | 152 kts | 306° |
| 2026-05-03 23:04 | -34.61435 | -58.31807 | 1745 ft | 147 kts | 306° |
| 2026-05-03 23:04 | -34.60860 | -58.32830 | 1555 ft | 145 kts | 306° |
| 2026-05-03 23:04 | -34.60297 | -58.33840 | 1365 ft | 145 kts | 306° |
| 2026-05-03 23:04 | -34.59729 | -58.34863 | 1172 ft | 145 kts | 306° |
| 2026-05-03 23:05 | -34.59166 | -58.35874 | 980 ft | 145 kts | 306° |
| 2026-05-03 23:05 | -34.58604 | -58.36888 | 789 ft | 145 kts | 306° |
| 2026-05-03 23:05 | -34.58013 | -58.37891 | 618 ft | 143 kts | 308° |
| 2026-05-03 23:05 | -34.57439 | -58.38875 | 417 ft | 144 kts | 306° |
| 2026-05-03 23:06 | -34.56868 | -58.39885 | 211 ft | 144 kts | 307° |
| 2026-05-03 23:06 | -34.56302 | -58.40900 | 42 ft | 142 kts | 306° |
| 2026-05-03 23:06 | -34.55776 | -58.41833 | 28 ft | 112 kts | 306° |
| 2026-05-03 23:06 | -34.55493 | -58.42335 | 27 ft | 32 kts | 303° |
| 2026-05-03 23:07 | -34.55425 | -58.42457 | 27 ft | 12 kts | 305° |
| 2026-05-03 23:07 | -34.55365 | -58.42483 | 27 ft | 10 kts | 45° |
| 2026-05-03 23:07 | -34.55363 | -58.42395 | 27 ft | 10 kts | 103° |
| 2026-05-03 23:07 | -34.55395 | -58.42324 | 27 ft | 8 kts | 125° |
| 2026-05-03 23:08 | -34.55429 | -58.42269 | 27 ft | 7 kts | 127° |
| 2026-05-03 23:08 | -34.55458 | -58.42223 | 27 ft | 8 kts | 126° |
| 2026-05-03 23:08 | -34.55505 | -58.42147 | 27 ft | 14 kts | 127° |
| 2026-05-03 23:08 | -34.55574 | -58.42033 | 27 ft | 19 kts | 125° |
| 2026-05-03 23:09 | -34.55661 | -58.41880 | 27 ft | 24 kts | 123° |
| 2026-05-03 23:09 | -34.55748 | -58.41708 | 27 ft | 21 kts | 117° |
| 2026-05-03 23:09 | -34.55810 | -58.41562 | 27 ft | 17 kts | 117° |
| 2026-05-03 23:09 | -34.55864 | -58.41434 | 27 ft | 16 kts | 117° |
| 2026-05-03 23:10 | -34.55920 | -58.41309 | 27 ft | 17 kts | 121° |
| 2026-05-03 23:10 | -34.55990 | -58.41186 | 27 ft | 16 kts | 127° |
| 2026-05-03 23:10 | -34.56044 | -58.41090 | 27 ft | 10 kts | 102° |
| 2026-05-03 23:10 | -34.56044 | -58.41075 | 27 ft | 0 kts | 76° |
| 2026-05-03 23:11 | -34.56043 | -58.41066 | 27 ft | 0 kts | 94° |
| 2026-05-03 23:11 | -34.56044 | -58.41063 | 27 ft | 5 kts | 97° |
| 2026-05-03 23:11 | -34.56082 | -58.41033 | 27 ft | 9 kts | 143° |
| 2026-05-03 23:11 | -34.56098 | -58.40973 | 27 ft | 6 kts | 49° |
| 2026-05-03 23:12 | -34.56071 | -58.40947 | 27 ft | 5 kts | 37° |
| 2026-05-03 23:12 | -34.56044 | -58.40921 | 27 ft | 3 kts | 39° |
| 2026-05-03 23:12 | -34.56038 | -58.40915 | 27 ft | 0 kts | 39° |